Time;durP1;ratioP1;P1;durP2;ratioP2;P2;SDS_P1;SDS_P2;PMS_P1;PMS_P2;Temp;Humidity;BMP_temperature;BMP_pressure;BME280_temperature;BME280_humidity;BME280_pressure;Samples;Min_cycle;Max_cycle;Signal;HPM_P1;HPM_P2
2023/09/04 00:02:02;;;;;;;6.83;5.37;;;;;;;18.11;99.66;99164.63;4115703;28;20642;-91
2023/09/04 00:04:06;;;;;;;5.70;4.60;;;;;;;18.11;99.33;99154.91;4105743;28;21228;-92
2023/09/04 00:06:10;;;;;;;7.00;5.07;;;;;;;18.11;99.77;99151.44;4123997;28;20719;-92
2023/09/04 00:08:14;;;;;;;5.50;4.20;;;;;;;18.11;99.95;99154.91;4126038;28;20731;-91
2023/09/04 00:10:17;;;;;;;4.93;3.97;;;;;;;18.09;99.57;99146.28;4122902;28;20708;-91
2023/09/04 00:12:21;;;;;;;4.83;4.30;;;;;;;18.01;98.58;99143.44;4115210;28;20629;-92
2023/09/04 00:14:24;;;;;;;5.10;4.00;;;;;;;17.95;98.97;99146.56;4130396;28;21205;-89
2023/09/04 00:16:26;;;;;;;4.60;4.20;;;;;;;17.92;98.32;99144.19;4108959;28;20674;-91
2023/09/04 00:18:31;;;;;;;5.27;4.07;;;;;;;17.88;98.87;99149.00;4111783;28;20651;-92
2023/09/04 00:20:36;;;;;;;5.07;4.43;;;;;;;17.84;99.35;99143.09;4121223;28;20712;-91
2023/09/04 00:22:39;;;;;;;7.73;4.80;;;;;;;17.82;99.35;99150.31;4110152;28;21086;-92
2023/09/04 00:24:42;;;;;;;8.93;5.40;;;;;;;17.82;99.93;99152.13;4120002;28;20682;-90
2023/09/04 00:26:45;;;;;;;6.20;4.60;;;;;;;17.82;99.77;99146.84;4124637;28;20674;-91
2023/09/04 00:28:49;;;;;;;5.67;5.07;;;;;;;17.81;100.00;99148.63;4109457;28;20736;-91
2023/09/04 00:30:52;;;;;;;7.30;4.17;;;;;;;17.82;100.00;99149.50;4121306;28;20636;-91
2023/09/04 00:32:55;;;;;;;7.60;4.77;;;;;;;17.81;99.49;99146.00;4121809;28;20635;-92
2023/09/04 00:34:58;;;;;;;7.80;4.87;;;;;;;17.82;99.67;99147.69;4107740;28;21045;-91
2023/09/04 00:37:07;;;;;;;5.43;4.53;;;;;;;17.78;99.16;99135.69;4123021;28;20642;-92
2023/09/04 00:39:10;;;;;;;6.23;5.00;;;;;;;17.82;99.79;99139.75;4121294;28;20664;-91
2023/09/04 00:41:15;;;;;;;5.70;4.57;;;;;;;17.79;99.34;99136.53;4121843;28;20664;-90
2023/09/04 00:43:21;;;;;;;6.20;4.97;;;;;;;17.82;99.98;99133.66;4112870;28;20620;-90
2023/09/04 00:45:23;;;;;;;4.90;4.43;;;;;;;17.82;99.37;99131.84;4115842;28;20655;-89
2023/09/04 00:47:27;;;;;;;5.73;4.67;;;;;;;17.84;99.32;99132.53;4106087;28;20664;-91
2023/09/04 00:49:31;;;;;;;6.30;4.43;;;;;;;17.83;99.99;99127.38;4117426;28;20655;-92
2023/09/04 00:51:34;;;;;;;6.87;5.67;;;;;;;17.81;99.64;99121.41;4111897;28;20722;-91
2023/09/04 00:53:39;;;;;;;6.77;4.50;;;;;;;17.78;99.91;99119.84;4105707;28;20655;-92
2023/09/04 00:55:42;;;;;;;8.17;5.50;;;;;;;17.78;99.65;99116.38;4104213;28;20640;-93
2023/09/04 00:57:46;;;;;;;6.03;4.70;;;;;;;17.73;100.00;99113.28;4104193;28;20657;-92
2023/09/04 00:59:49;;;;;;;7.17;5.00;;;;;;;17.70;99.70;99109.06;4109874;28;20650;-93
2023/09/04 01:01:53;;;;;;;8.07;5.20;;;;;;;17.73;100.00;99114.09;4130161;28;20634;-91
2023/09/04 01:03:56;;;;;;;6.40;5.63;;;;;;;17.70;100.00;99109.06;4104378;28;20676;-91
2023/09/04 01:06:00;;;;;;;7.93;5.17;;;;;;;17.73;100.00;99108.81;4104412;28;20643;-92
2023/09/04 01:08:04;;;;;;;7.07;5.40;;;;;;;17.74;100.00;99105.25;4133707;28;20670;-92
2023/09/04 01:10:09;;;;;;;6.10;4.83;;;;;;;17.72;99.91;99107.13;4104599;28;20643;-91
2023/09/04 01:12:18;;;;;;;6.37;4.93;;;;;;;17.71;100.00;99102.84;4107708;28;20668;-90
2023/09/04 01:14:20;;;;;;;8.57;4.60;;;;;;;17.68;99.92;99100.44;4115743;28;20631;-90
2023/09/04 01:16:24;;;;;;;6.33;5.63;;;;;;;17.67;100.00;99104.03;4132301;28;20641;-92
2023/09/04 01:18:28;;;;;;;6.07;5.47;;;;;;;17.66;99.94;99105.00;4116560;28;20728;-91
2023/09/04 01:20:33;;;;;;;6.60;5.40;;;;;;;17.64;100.00;99106.94;4104208;28;20645;-91
2023/09/04 01:22:36;;;;;;;5.63;5.00;;;;;;;17.64;99.86;99101.66;4108169;28;20632;-91
2023/09/04 01:24:42;;;;;;;6.20;5.10;;;;;;;17.62;99.76;99108.00;4104898;28;21204;-93
2023/09/04 01:26:51;;;;;;;5.30;4.57;;;;;;;17.65;99.57;99120.94;4118973;28;20674;-91
2023/09/04 01:29:09;;;;;;;7.13;5.07;;;;;;;17.64;99.48;99114.84;4123634;28;20644;-92
2023/09/04 01:31:28;;;;;;;6.37;4.70;;;;;;;17.65;99.52;99119.16;4107379;28;21440;-92
2023/09/04 01:33:33;;;;;;;6.13;4.80;;;;;;;17.66;99.85;99125.28;4108794;28;20679;-90
2023/09/04 01:35:38;;;;;;;5.50;4.97;;;;;;;17.61;98.70;99115.09;4109264;28;20655;-92
2023/09/04 01:37:42;;;;;;;6.20;5.00;;;;;;;17.61;99.06;99116.91;4135532;28;21246;-90
2023/09/04 01:39:46;;;;;;;6.30;5.37;;;;;;;17.59;97.73;99117.03;4124066;28;20683;-93
2023/09/04 01:41:49;;;;;;;6.67;5.80;;;;;;;17.57;99.12;99111.00;4123997;28;21196;-93
2023/09/04 01:43:53;;;;;;;6.13;4.60;;;;;;;17.59;99.27;99114.38;4108699;28;20638;-93
2023/09/04 01:45:57;;;;;;;6.37;4.63;;;;;;;17.61;99.67;99122.19;4122080;28;20638;-91
2023/09/04 01:48:00;;;;;;;5.50;4.63;;;;;;;17.60;99.39;99120.50;4109743;28;20690;-91
2023/09/04 01:50:03;;;;;;;6.63;5.30;;;;;;;17.58;98.94;99120.63;4109863;28;20632;-90
2023/09/04 01:52:09;;;;;;;6.40;5.07;;;;;;;17.52;99.34;99117.63;4107183;28;20727;-92
2023/09/04 01:54:12;;;;;;;6.13;5.27;;;;;;;17.54;99.67;99123.63;4101799;28;20703;-90
2023/09/04 01:56:16;;;;;;;9.00;5.50;;;;;;;17.54;99.24;99118.34;4125733;28;21013;-91
2023/09/04 01:58:19;;;;;;;4.93;4.43;;;;;;;17.57;100.00;99113.66;4124567;28;20752;-91
2023/09/04 02:00:21;;;;;;;6.80;5.33;;;;;;;17.55;99.33;99112.13;4123210;28;20634;-92
2023/09/04 02:02:24;;;;;;;6.97;5.10;;;;;;;17.54;99.78;99111.25;4122967;28;21187;-91
2023/09/04 02:04:31;;;;;;;7.70;5.10;;;;;;;17.53;99.70;99114.88;4121465;28;21590;-91
2023/09/04 02:06:35;;;;;;;7.10;5.00;;;;;;;17.46;99.11;99110.22;4119273;28;20644;-91
2023/09/04 02:08:39;;;;;;;5.80;4.80;;;;;;;17.44;99.30;99106.88;4108125;28;20629;-92
2023/09/04 02:10:43;;;;;;;9.83;6.17;;;;;;;17.46;100.00;99110.22;4109856;28;20727;-91
2023/09/04 02:12:46;;;;;;;6.17;5.57;;;;;;;17.48;99.28;99111.78;4123231;28;20662;-90
2023/09/04 02:14:51;;;;;;;6.67;5.10;;;;;;;17.43;100.00;99113.09;4112701;28;20682;-92
2023/09/04 02:16:55;;;;;;;6.90;5.57;;;;;;;17.43;99.38;99115.72;4111936;28;20645;-91
2023/09/04 02:18:57;;;;;;;7.30;5.20;;;;;;;17.40;99.99;99110.69;4105898;28;20670;-90
2023/09/04 02:21:03;;;;;;;5.90;5.20;;;;;;;17.36;99.87;99111.06;4109864;28;20667;-91
2023/09/04 02:23:07;;;;;;;5.63;5.00;;;;;;;17.36;99.10;99111.88;4107689;28;21234;-92
2023/09/04 02:25:11;;;;;;;6.53;5.37;;;;;;;17.36;98.78;99108.41;4121981;28;20639;-91
2023/09/04 02:27:14;;;;;;;5.77;4.93;;;;;;;17.35;98.78;99104.09;4115484;28;20658;-90
2023/09/04 02:29:17;;;;;;;6.80;5.40;;;;;;;17.32;99.12;99109.59;4108290;28;20650;-92
2023/09/04 02:31:20;;;;;;;9.60;5.63;;;;;;;17.35;99.56;99101.47;4112508;28;20765;-92
2023/09/04 02:33:24;;;;;;;7.10;5.40;;;;;;;17.35;99.41;99107.59;4122122;28;20639;-91
2023/09/04 02:35:27;;;;;;;6.40;5.70;;;;;;;17.34;99.68;99103.25;4120448;28;21006;-90
2023/09/04 02:37:30;;;;;;;5.33;4.83;;;;;;;17.35;99.21;99104.09;4111883;28;20649;-91
2023/09/04 02:39:33;;;;;;;5.90;5.30;;;;;;;17.33;99.40;99100.75;4119471;28;20689;-90
2023/09/04 02:41:38;;;;;;;6.40;5.70;;;;;;;17.31;99.15;99094.75;4106833;28;20640;-90
2023/09/04 02:43:41;;;;;;;5.40;4.60;;;;;;;17.34;98.71;99097.16;4121635;28;20648;-90
2023/09/04 02:45:46;;;;;;;5.80;5.20;;;;;;;17.33;99.35;99098.09;4105388;28;20631;-92
2023/09/04 02:47:48;;;;;;;6.87;5.30;;;;;;;17.33;99.07;99104.22;4119947;28;20662;-90
2023/09/04 02:49:51;;;;;;;7.27;5.53;;;;;;;17.34;98.80;99091.88;4108152;28;23726;-91
2023/09/04 02:51:55;;;;;;;6.50;5.70;;;;;;;17.31;98.99;99100.88;4107044;28;20628;-91
2023/09/04 02:53:58;;;;;;;10.13;5.40;;;;;;;17.28;99.17;99097.66;4121202;28;22111;-91
2023/09/04 02:56:02;;;;;;;6.57;5.67;;;;;;;17.27;98.63;99101.22;4121356;28;20628;-91
2023/09/04 02:58:06;;;;;;;7.07;5.90;;;;;;;17.29;99.54;99094.88;4117194;28;20635;-89
2023/09/04 03:00:11;;;;;;;7.23;5.80;;;;;;;17.31;98.74;99102.69;4107179;28;20643;-91
2023/09/04 03:02:14;;;;;;;5.87;5.07;;;;;;;17.30;98.54;99091.28;4110811;28;20683;-91
2023/09/04 03:04:17;;;;;;;6.10;5.37;;;;;;;17.32;98.75;99093.78;4118617;28;21588;-92
2023/09/04 03:06:20;;;;;;;6.63;5.10;;;;;;;17.35;98.56;99090.91;4104041;28;21018;-90
2023/09/04 03:08:23;;;;;;;6.53;5.27;;;;;;;17.38;98.58;99090.66;4104802;28;21467;-91
2023/09/04 03:10:27;;;;;;;8.00;5.07;;;;;;;17.41;99.49;99087.78;4110652;28;20639;-90
2023/09/04 03:12:32;;;;;;;7.20;5.73;;;;;;;17.43;98.52;99093.78;4116668;28;21070;-91
2023/09/04 03:14:37;;;;;;;6.43;5.50;;;;;;;17.44;98.66;99092.81;4129709;28;20646;-87
2023/09/04 03:16:41;;;;;;;7.67;5.83;;;;;;;17.43;98.89;99097.25;4122201;28;21047;-91
2023/09/04 03:18:44;;;;;;;7.53;6.00;;;;;;;17.41;98.38;99090.41;4104068;28;20632;-91
2023/09/04 03:20:48;;;;;;;6.57;5.87;;;;;;;17.41;98.77;99095.69;4108470;28;20641;-92
2023/09/04 03:22:52;;;;;;;8.57;6.27;;;;;;;17.39;98.28;99100.25;4106227;28;20641;-91
2023/09/04 03:24:56;;;;;;;6.13;5.53;;;;;;;17.35;98.09;99101.47;4110517;28;21204;-92
2023/09/04 03:27:03;;;;;;;7.00;5.43;;;;;;;17.34;98.39;99100.63;4121099;28;20734;-91
2023/09/04 03:29:06;;;;;;;6.10;5.50;;;;;;;17.32;98.12;99099.91;4111002;28;20653;-93
2023/09/04 03:31:14;;;;;;;8.90;5.97;;;;;;;17.30;98.72;99099.19;4102183;28;20644;-91
2023/09/04 03:33:19;;;;;;;6.80;5.40;;;;;;;17.26;98.93;99110.09;4105421;28;21091;-92
2023/09/04 03:35:22;;;;;;;7.10;5.63;;;;;;;17.22;98.58;99106.88;4115282;28;20632;-91
2023/09/04 03:37:24;;;;;;;7.17;5.30;;;;;;;17.22;98.74;99104.22;4133960;28;20653;-91
2023/09/04 03:39:27;;;;;;;6.60;5.63;;;;;;;17.21;98.46;99101.72;4116712;28;20627;-91
2023/09/04 03:41:31;;;;;;;7.33;5.80;;;;;;;17.21;99.17;99107.81;4127342;28;20640;-92
2023/09/04 03:43:35;;;;;;;7.97;6.10;;;;;;;17.21;97.34;99110.44;4134304;28;20624;-91
2023/09/04 03:45:38;;;;;;;6.20;5.33;;;;;;;17.27;98.89;99111.78;4116206;28;20675;-91
2023/09/04 03:47:44;;;;;;;6.63;5.93;;;;;;;17.30;97.37;99115.00;4115993;28;20635;-90
2023/09/04 03:49:47;;;;;;;6.90;6.20;;;;;;;17.33;97.99;99119.22;4104924;28;20709;-90
2023/09/04 03:51:51;;;;;;;5.70;5.10;;;;;;;17.34;98.14;99112.97;4122073;28;20640;-90
2023/09/04 03:53:54;;;;;;;6.70;5.57;;;;;;;17.36;97.59;99111.06;4107169;28;20639;-91
2023/09/04 03:56:03;;;;;;;7.70;5.90;;;;;;;17.41;97.61;99114.16;4108247;28;20634;-91
2023/09/04 03:58:07;;;;;;;8.10;6.40;;;;;;;17.40;97.46;99110.69;4100746;28;20638;-91
2023/09/04 04:00:14;;;;;;;6.33;5.47;;;;;;;17.41;97.41;99119.44;4104974;28;20635;-91
2023/09/04 04:02:19;;;;;;;5.87;5.30;;;;;;;17.40;96.78;99128.34;4112278;28;20699;-92
2023/09/04 04:04:24;;;;;;;7.20;6.10;;;;;;;17.40;96.74;99128.34;4118624;28;20684;-90
2023/09/04 04:06:28;;;;;;;6.30;5.50;;;;;;;17.43;96.02;99118.38;4113842;28;20633;-86
2023/09/04 04:08:31;;;;;;;8.50;5.83;;;;;;;17.43;96.87;99131.56;4113612;28;20803;-90
2023/09/04 04:10:34;;;;;;;7.33;5.70;;;;;;;17.45;96.39;99126.16;4123617;28;20642;-90
2023/09/04 04:12:38;;;;;;;7.23;5.90;;;;;;;17.47;96.15;99135.63;4121260;28;21184;-93
2023/09/04 04:14:41;;;;;;;9.73;6.37;;;;;;;17.46;96.95;99135.75;4133225;28;20622;-94
2023/09/04 04:16:44;;;;;;;8.63;5.53;;;;;;;17.46;97.27;99141.88;4115359;28;20621;-93
2023/09/04 04:18:48;;;;;;;6.90;6.10;;;;;;;17.46;96.90;99140.06;4105524;28;20636;-94
2023/09/04 04:20:53;;;;;;;7.50;5.80;;;;;;;17.43;96.47;99150.03;4133388;28;20726;-91
2023/09/04 04:22:57;;;;;;;7.10;6.00;;;;;;;17.43;96.48;99139.47;4115245;28;20642;-93
2023/09/04 04:25:01;;;;;;;6.50;5.80;;;;;;;17.46;97.44;99155.88;4125004;28;21182;-94
2023/09/04 04:27:05;;;;;;;8.00;6.03;;;;;;;17.46;96.18;99154.22;4122872;28;20641;-93
2023/09/04 04:29:09;;;;;;;6.30;5.40;;;;;;;17.45;95.83;99155.16;4121079;28;20803;-93
2023/09/04 04:31:12;;;;;;;7.37;6.23;;;;;;;17.46;96.74;99166.44;4108786;28;20679;-94
2023/09/04 04:33:14;;;;;;;6.70;5.60;;;;;;;17.45;96.00;99152.53;4114005;28;20698;-94
2023/09/04 04:35:18;;;;;;;7.03;5.87;;;;;;;17.46;95.81;99151.59;4125738;28;20644;-93
2023/09/04 04:37:23;;;;;;;7.13;5.80;;;;;;;17.46;95.97;99148.94;4102303;28;20651;-94
2023/09/04 04:39:25;;;;;;;8.00;6.07;;;;;;;17.45;95.37;99152.53;4120241;28;21271;-94
2023/09/04 04:41:28;;;;;;;8.07;5.90;;;;;;;17.41;95.89;99144.03;4114619;28;21194;-95
2023/09/04 04:43:32;;;;;;;7.03;6.27;;;;;;;17.43;96.63;99146.56;4127980;28;21066;-94
2023/09/04 04:45:35;;;;;;;6.77;5.90;;;;;;;17.42;95.92;99152.78;4116820;28;20667;-93
2023/09/04 04:47:39;;;;;;;7.70;5.87;;;;;;;17.43;96.25;99150.03;4133456;28;20645;-93
2023/09/04 04:49:42;;;;;;;6.57;5.87;;;;;;;17.44;95.81;99154.34;4134572;28;20703;-93
2023/09/04 04:51:44;;;;;;;6.23;5.63;;;;;;;17.45;95.15;99149.91;4117988;28;20630;-93
2023/09/04 04:53:49;;;;;;;6.60;5.90;;;;;;;17.43;96.66;99151.81;4101111;28;21049;-94
2023/09/04 04:55:52;;;;;;;6.33;5.73;;;;;;;17.35;96.56;99141.03;4118814;28;20645;-93
2023/09/04 04:57:55;;;;;;;7.13;6.07;;;;;;;17.38;96.36;99140.78;4097194;28;20641;-94
2023/09/04 04:59:59;;;;;;;7.77;5.87;;;;;;;17.38;95.64;99146.91;4123111;28;20672;-92
2023/09/04 05:02:02;;;;;;;6.07;5.47;;;;;;;17.35;96.43;99146.28;4123135;28;20683;-93
2023/09/04 05:04:06;;;;;;;6.50;5.80;;;;;;;17.39;95.75;99137.19;4123750;28;21122;-92
2023/09/04 05:06:10;;;;;;;7.47;5.47;;;;;;;17.46;95.42;99141.03;4109133;28;20636;-91
2023/09/04 05:08:14;;;;;;;6.50;5.50;;;;;;;17.53;95.49;99132.50;4119334;28;20635;-92
2023/09/04 05:10:20;;;;;;;9.73;5.93;;;;;;;17.53;95.51;99132.50;4119494;28;20707;-92
2023/09/04 05:12:23;;;;;;;7.10;5.20;;;;;;;17.50;94.89;99125.66;4125138;28;20623;-91
2023/09/04 05:14:26;;;;;;;5.70;5.03;;;;;;;17.52;94.81;99125.53;4121275;28;20642;-92
2023/09/04 05:16:30;;;;;;;6.20;5.33;;;;;;;17.59;94.82;99130.22;4123368;28;20741;-86
2023/09/04 05:18:34;;;;;;;6.90;5.20;;;;;;;17.72;94.82;99130.06;4127481;28;20739;-86
2023/09/04 05:20:38;;;;;;;6.70;5.53;;;;;;;17.87;94.91;99139.41;4122485;28;20744;-86
2023/09/04 05:22:42;;;;;;;7.23;5.80;;;;;;;18.03;94.65;99136.22;4117366;28;20636;-86
2023/09/04 05:24:46;;;;;;;6.13;5.50;;;;;;;18.17;92.44;99141.22;4118610;28;20983;-86
2023/09/04 05:26:51;;;;;;;6.83;5.03;;;;;;;18.23;92.12;99140.72;4109258;28;20628;-86
2023/09/04 05:28:58;;;;;;;7.30;5.90;;;;;;;18.28;92.30;99138.56;4140388;28;20650;-88
2023/09/04 05:31:05;;;;;;;6.30;5.70;;;;;;;18.35;92.99;99134.44;4102925;28;20646;-89
2023/09/04 05:33:08;;;;;;;6.40;5.50;;;;;;;18.50;92.43;99143.75;4108480;28;20624;-89
2023/09/04 05:35:12;;;;;;;7.33;5.27;;;;;;;18.67;91.36;99138.72;4132495;28;20630;-89
2023/09/04 05:37:18;;;;;;;5.90;5.30;;;;;;;18.88;89.77;99143.03;4120436;28;20632;-88
2023/09/04 05:39:22;;;;;;;6.37;5.10;;;;;;;19.08;89.64;99136.09;4107647;28;20652;-86
2023/09/04 05:41:25;;;;;;;5.87;5.30;;;;;;;19.29;90.09;99134.22;4120478;28;20743;-86
2023/09/04 05:43:30;;;;;;;6.83;5.33;;;;;;;19.41;89.37;99136.66;4121992;28;20650;-86
2023/09/04 05:45:34;;;;;;;7.10;6.10;;;;;;;19.50;88.33;99136.69;4123611;28;20633;-86
2023/09/04 05:47:37;;;;;;;7.33;6.13;;;;;;;19.61;88.30;99141.84;4135082;28;20640;-86
2023/09/04 05:49:40;;;;;;;7.20;5.47;;;;;;;19.75;88.01;99141.47;4104517;28;21047;-86
2023/09/04 05:51:43;;;;;;;6.73;5.57;;;;;;;19.75;87.05;99140.66;4119794;28;20672;-85
2023/09/04 05:53:47;;;;;;;6.43;5.30;;;;;;;19.87;87.48;99135.97;4102082;28;20650;-86
2023/09/04 05:56:03;;;;;;;6.70;5.50;;;;;;;20.05;85.97;99138.78;4120085;28;20642;-86
2023/09/04 05:58:07;;;;;;;6.67;5.63;;;;;;;20.15;86.04;99139.66;4119564;28;20724;-86
2023/09/04 06:00:12;;;;;;;6.23;5.63;;;;;;;20.27;84.58;99141.19;4123641;28;20716;-85
2023/09/04 06:02:16;;;;;;;6.13;5.53;;;;;;;20.44;85.39;99144.78;4119916;28;20627;-86
2023/09/04 06:04:18;;;;;;;7.10;5.13;;;;;;;20.64;85.04;99148.28;4123420;28;20755;-86
2023/09/04 06:06:25;;;;;;;6.23;5.50;;;;;;;20.80;86.49;99148.59;4122727;28;20635;-86
2023/09/04 06:08:28;;;;;;;6.13;5.53;;;;;;;20.89;84.28;99148.56;4109466;28;20630;-87
2023/09/04 06:10:31;;;;;;;7.30;5.80;;;;;;;20.99;84.78;99152.03;4123275;28;20719;-86
2023/09/04 06:12:35;;;;;;;6.70;5.90;;;;;;;21.09;84.34;99139.56;4125769;28;20638;-86
2023/09/04 06:14:38;;;;;;;8.93;5.70;;;;;;;21.17;82.63;99132.56;4124475;28;20812;-87
2023/09/04 06:16:43;;;;;;;7.97;5.30;;;;;;;21.27;83.61;99134.22;4105252;28;20638;-87
2023/09/04 06:18:47;;;;;;;5.77;5.17;;;;;;;21.38;83.54;99136.66;4120974;28;20638;-86
2023/09/04 06:20:50;;;;;;;6.20;5.23;;;;;;;21.48;83.12;99140.13;4120747;28;20662;-86
2023/09/04 06:22:53;;;;;;;8.70;7.10;;;;;;;21.59;82.26;99136.44;4130551;28;20734;-87
2023/09/04 06:24:57;;;;;;;5.83;5.23;;;;;;;21.66;83.00;99145.53;4127091;28;20704;-87
2023/09/04 06:27:00;;;;;;;6.37;5.67;;;;;;;21.72;81.49;99145.75;4105637;28;20642;-87
2023/09/04 06:29:04;;;;;;;6.17;5.50;;;;;;;21.82;81.36;99151.88;4105723;28;21296;-88
2023/09/04 06:31:07;;;;;;;5.67;5.10;;;;;;;21.86;80.41;99154.06;4137116;28;21020;-87
2023/09/04 06:33:12;;;;;;;6.00;5.47;;;;;;;21.93;81.66;99149.81;4122937;28;21303;-86
2023/09/04 06:35:15;;;;;;;6.00;5.40;;;;;;;22.03;81.48;99160.41;4118376;28;20651;-87
2023/09/04 06:37:19;;;;;;;5.90;5.20;;;;;;;22.05;81.22;99161.91;4119803;28;20682;-88
2023/09/04 06:39:22;;;;;;;8.50;5.10;;;;;;;22.09;80.86;99152.66;4128695;28;20633;-87
2023/09/04 06:41:25;;;;;;;5.47;4.90;;;;;;;22.22;80.91;99161.13;4123971;28;20643;-87
2023/09/04 06:43:29;;;;;;;6.83;5.50;;;;;;;22.28;80.63;99155.22;4119278;28;21233;-88
2023/09/04 06:45:35;;;;;;;6.37;5.67;;;;;;;22.37;80.29;99152.50;4116929;28;20792;-87
2023/09/04 06:47:38;;;;;;;5.50;5.00;;;;;;;22.48;80.80;99148.78;4122566;28;20647;-87
2023/09/04 06:49:43;;;;;;;5.30;4.80;;;;;;;22.49;80.15;99153.09;4107963;28;20687;-88
2023/09/04 06:51:46;;;;;;;6.50;5.90;;;;;;;22.44;80.32;99156.19;4125822;28;20618;-87
2023/09/04 06:53:49;;;;;;;5.97;5.37;;;;;;;22.44;81.51;99152.72;4118275;28;20684;-88
2023/09/04 06:55:53;;;;;;;5.53;5.00;;;;;;;22.47;79.17;99142.59;4125540;28;20683;-87
2023/09/04 06:57:56;;;;;;;7.63;5.43;;;;;;;22.54;79.75;99145.50;4120493;28;21491;-88
2023/09/04 07:00:07;;;;;;;5.90;5.03;;;;;;;22.75;80.31;99154.84;4118920;28;20715;-87
2023/09/04 07:02:10;;;;;;;5.87;5.37;;;;;;;22.90;79.80;99150.63;4122099;28;20640;-87
2023/09/04 07:04:13;;;;;;;6.03;5.43;;;;;;;23.04;77.86;99160.75;4124668;28;21437;-87
2023/09/04 07:06:18;;;;;;;6.80;5.33;;;;;;;23.21;78.68;99156.19;4109689;28;20675;-88
2023/09/04 07:08:21;;;;;;;6.30;5.70;;;;;;;23.41;78.46;99154.13;4119077;28;20638;-87
2023/09/04 07:10:24;;;;;;;5.23;4.70;;;;;;;23.44;77.38;99154.66;4121051;28;20664;-87
2023/09/04 07:12:28;;;;;;;5.97;5.20;;;;;;;23.63;78.66;99149.09;4120834;28;20637;-88
2023/09/04 07:14:32;;;;;;;5.47;4.97;;;;;;;23.69;73.02;99152.00;4119520;28;20656;-87
2023/09/04 07:16:37;;;;;;;6.17;5.10;;;;;;;23.83;73.23;99150.53;4131662;28;20639;-87
2023/09/04 07:18:52;;;;;;;5.60;5.10;;;;;;;24.10;73.64;99160.94;4125986;28;20636;-87
2023/09/04 07:20:55;;;;;;;7.00;5.30;;;;;;;24.34;73.50;99145.84;4111183;28;20628;-87
2023/09/04 07:23:00;;;;;;;6.77;6.07;;;;;;;24.47;72.65;99146.22;4110233;28;20693;-88
2023/09/04 07:25:22;;;;;;;6.80;5.40;;;;;;;24.59;71.33;99148.41;4127054;28;21212;-87
2023/09/04 07:27:26;;;;;;;5.87;5.27;;;;;;;24.76;70.72;99142.91;4106562;28;20665;-87
2023/09/04 07:29:30;;;;;;;6.97;5.63;;;;;;;24.79;70.17;99145.25;4120593;28;20641;-87
2023/09/04 07:31:33;;;;;;;6.57;5.90;;;;;;;24.87;70.53;99139.91;4125470;28;21144;-87
2023/09/04 07:33:37;;;;;;;6.17;5.33;;;;;;;25.03;70.47;99149.75;4121432;28;20640;-87
2023/09/04 07:35:41;;;;;;;6.90;6.23;;;;;;;25.11;70.03;99145.25;4111842;28;20665;-88
2023/09/04 07:37:45;;;;;;;6.67;5.97;;;;;;;25.20;69.86;99142.38;4116503;28;20634;-87
2023/09/04 07:39:52;;;;;;;7.70;6.67;;;;;;;25.13;69.14;99137.06;4129350;28;20739;-87
2023/09/04 07:41:56;;;;;;;7.60;6.80;;;;;;;25.28;69.90;99136.19;4116555;28;20629;-88
2023/09/04 07:43:59;;;;;;;9.07;6.60;;;;;;;25.32;69.73;99127.66;4119880;28;21028;-88
2023/09/04 07:46:04;;;;;;;6.80;6.10;;;;;;;25.27;69.41;99126.50;4125149;28;21058;-88
2023/09/04 07:48:07;;;;;;;7.93;7.13;;;;;;;25.39;69.54;99131.28;4119813;28;21146;-88
2023/09/04 07:50:11;;;;;;;6.30;5.70;;;;;;;25.43;68.76;99137.97;4123588;28;20634;-88
2023/09/04 07:52:14;;;;;;;8.53;7.00;;;;;;;25.40;69.80;99135.66;4104876;28;20801;-89
2023/09/04 07:54:19;;;;;;;6.60;5.37;;;;;;;25.26;69.30;99136.34;4113722;28;20645;-89
2023/09/04 07:56:23;;;;;;;6.63;6.00;;;;;;;25.16;71.45;99125.00;4118783;28;20639;-88
2023/09/04 07:58:28;;;;;;;5.97;5.37;;;;;;;25.23;69.44;99126.00;4123004;28;20999;-88
2023/09/04 08:00:31;;;;;;;6.13;5.53;;;;;;;25.24;69.85;99126.84;4117104;28;20668;-87
2023/09/04 08:02:34;;;;;;;6.67;6.07;;;;;;;25.20;70.30;99123.69;4114492;28;20725;-87
2023/09/04 08:04:37;;;;;;;5.60;5.10;;;;;;;25.43;70.96;99121.13;4106206;28;20673;-88
2023/09/04 08:06:41;;;;;;;5.87;5.27;;;;;;;25.55;69.47;99128.59;4117406;28;21202;-87
2023/09/04 08:08:44;;;;;;;5.67;5.17;;;;;;;25.62;68.56;99122.38;4117980;28;21222;-87
2023/09/04 08:10:50;;;;;;;5.40;4.90;;;;;;;25.72;69.75;99124.88;4112675;28;20773;-87
2023/09/04 08:12:55;;;;;;;5.90;5.30;;;;;;;25.86;68.24;99130.31;4105568;28;21095;-87
2023/09/04 08:14:59;;;;;;;5.10;4.70;;;;;;;25.88;68.63;99130.16;4106887;28;20745;-87
2023/09/04 08:17:04;;;;;;;5.10;4.60;;;;;;;25.99;68.60;99137.78;4121439;28;21163;-86
2023/09/04 08:19:08;;;;;;;5.53;5.03;;;;;;;26.07;68.31;99143.06;4118996;28;20648;-87
2023/09/04 08:21:11;;;;;;;4.63;4.23;;;;;;;26.15;68.17;99144.69;4116357;28;20639;-87
2023/09/04 08:23:19;;;;;;;5.27;4.77;;;;;;;26.25;68.92;99142.66;4107990;28;20746;-87
2023/09/04 08:25:22;;;;;;;5.33;4.83;;;;;;;26.20;67.61;99123.59;4115294;28;20661;-87
2023/09/04 08:27:26;;;;;;;5.40;4.90;;;;;;;26.27;66.81;99129.09;4114964;28;21123;-87
2023/09/04 08:29:30;;;;;;;5.20;4.70;;;;;;;26.30;67.12;99123.41;4104734;28;20632;-88
2023/09/04 08:31:33;;;;;;;5.33;4.83;;;;;;;26.35;66.88;99124.53;4116482;28;20694;-87
2023/09/04 08:33:36;;;;;;;4.53;4.13;;;;;;;26.38;69.31;99126.84;4103790;28;21192;-88
2023/09/04 08:35:40;;;;;;;5.23;4.70;;;;;;;26.50;66.78;99125.44;4124400;28;21087;-87
2023/09/04 08:37:43;;;;;;;5.10;4.60;;;;;;;26.48;66.50;99121.28;4116828;28;20634;-86
2023/09/04 08:39:46;;;;;;;7.03;4.93;;;;;;;26.32;66.68;99119.53;4113270;28;20685;-87
2023/09/04 08:41:50;;;;;;;5.13;4.63;;;;;;;26.40;67.24;99114.16;4119494;28;20669;-89
2023/09/04 08:43:53;;;;;;;4.80;4.40;;;;;;;26.62;66.42;99115.97;4131770;28;20634;-86
2023/09/04 08:45:59;;;;;;;5.33;4.83;;;;;;;26.66;65.22;99119.97;4115175;28;20987;-87
2023/09/04 08:48:04;;;;;;;5.40;4.40;;;;;;;26.50;64.19;99120.06;4130992;28;20729;-88
2023/09/04 08:50:08;;;;;;;4.60;4.20;;;;;;;26.44;65.46;99110.06;4113240;28;20631;-87
2023/09/04 08:52:12;;;;;;;4.87;4.33;;;;;;;26.41;65.93;99110.44;4113954;28;20705;-88
2023/09/04 08:54:16;;;;;;;4.70;4.30;;;;;;;26.25;63.51;99110.53;4117367;28;20762;-87
2023/09/04 08:56:20;;;;;;;5.17;4.57;;;;;;;26.31;66.70;99107.19;4104434;28;21095;-88
2023/09/04 08:58:23;;;;;;;5.03;4.50;;;;;;;26.48;66.12;99106.03;4118280;28;20673;-89
2023/09/04 09:00:27;;;;;;;4.63;4.23;;;;;;;26.52;64.37;99106.50;4114542;28;21232;-87
2023/09/04 09:02:31;;;;;;;4.77;4.30;;;;;;;26.53;63.38;99111.69;4118285;28;20670;-87
2023/09/04 09:04:35;;;;;;;6.60;4.00;;;;;;;26.60;64.13;99104.63;4122579;28;20682;-87
2023/09/04 09:06:39;;;;;;;4.83;4.40;;;;;;;26.70;64.77;99116.75;4112670;28;20636;-87
2023/09/04 09:08:43;;;;;;;4.57;4.17;;;;;;;26.76;64.49;99110.66;4116794;28;20645;-87
2023/09/04 09:10:46;;;;;;;4.80;4.40;;;;;;;26.81;63.30;99112.81;4113347;28;20639;-87
2023/09/04 09:12:50;;;;;;;4.40;4.00;;;;;;;26.76;63.70;99115.16;4129562;28;20749;-87
2023/09/04 09:14:54;;;;;;;4.90;4.00;;;;;;;26.76;62.90;99104.47;4120428;28;20632;-87
2023/09/04 09:17:04;;;;;;;5.60;3.80;;;;;;;26.77;62.34;99098.91;4131528;28;20654;-87
2023/09/04 09:19:11;;;;;;;4.23;3.60;;;;;;;26.78;62.41;99092.56;4129494;28;20692;-87
2023/09/04 09:21:28;;;;;;;4.60;4.10;;;;;;;26.78;63.00;99089.06;4105075;28;20636;-87
2023/09/04 09:23:31;;;;;;;4.37;3.97;;;;;;;26.78;62.69;99091.72;4118787;28;24720;-87
2023/09/04 09:25:36;;;;;;;3.80;3.50;;;;;;;26.84;61.97;99091.00;4118067;28;21069;-87
2023/09/04 09:27:42;;;;;;;4.20;3.80;;;;;;;26.81;61.14;99086.03;4116013;28;20638;-87
2023/09/04 09:29:46;;;;;;;5.13;4.17;;;;;;;26.77;61.98;99090.06;4113634;28;20693;-87
2023/09/04 09:31:49;;;;;;;4.10;3.73;;;;;;;26.72;61.01;99079.88;4123935;28;20665;-87
2023/09/04 09:33:53;;;;;;;4.00;3.60;;;;;;;26.74;61.81;99077.84;4116948;28;20638;-87
2023/09/04 09:35:58;;;;;;;4.23;3.83;;;;;;;26.66;60.72;99088.66;4115512;28;20634;-87
2023/09/04 09:38:01;;;;;;;4.83;3.43;;;;;;;26.62;61.32;99083.84;4116316;28;20631;-87
2023/09/04 09:40:08;;;;;;;4.40;3.40;;;;;;;26.56;59.86;99079.19;4124997;28;20623;-87
2023/09/04 09:42:12;;;;;;;4.20;3.53;;;;;;;26.56;59.33;99087.22;4120016;28;20612;-86
2023/09/04 09:44:15;;;;;;;4.17;3.77;;;;;;;26.61;58.65;99087.50;4124042;28;20747;-86
2023/09/04 09:46:18;;;;;;;4.63;4.13;;;;;;;26.59;59.32;99085.00;4120455;28;20660;-86